createdAt,value
2023-05-10T00:01:21.888Z,9.30
2023-05-10T00:04:07.817Z,9.18
2023-05-10T00:06:53.742Z,8.98
2023-05-10T00:09:39.419Z,8.91
2023-05-10T00:12:24.893Z,8.85
2023-05-10T00:15:10.645Z,8.81
2023-05-10T00:17:56.273Z,8.77
2023-05-10T00:20:41.660Z,8.75
2023-05-10T00:23:26.978Z,8.78
2023-05-10T00:26:12.387Z,8.64
2023-05-10T00:28:59.599Z,8.52
2023-05-10T00:31:44.896Z,8.47
2023-05-10T00:34:30.285Z,8.38
2023-05-10T00:37:15.838Z,8.37
2023-05-10T00:40:01.262Z,8.36
2023-05-10T00:42:46.714Z,8.31
2023-05-10T00:45:34.062Z,8.32
2023-05-10T00:48:19.936Z,8.30
2023-05-10T00:51:05.970Z,8.32
2023-05-10T00:53:52.447Z,8.31
2023-05-10T00:56:38.845Z,8.31
2023-05-10T00:59:24.841Z,8.33
2023-05-10T01:02:10.172Z,8.19
2023-05-10T01:04:56.312Z,8.06
2023-05-10T01:07:42.572Z,8.07
2023-05-10T01:10:28.998Z,8.11
2023-05-10T01:13:19.865Z,8.14
2023-05-10T01:16:07.876Z,8.05
2023-05-10T01:18:54.039Z,8.05
2023-05-10T01:21:46.108Z,8.08
2023-05-10T01:24:54.898Z,8.10
2023-05-10T01:27:59.249Z,8.12
2023-05-10T01:30:58.098Z,8.13
2023-05-10T01:34:06.829Z,8.15
2023-05-10T01:37:07.196Z,8.17
2023-05-10T01:40:04.010Z,8.16
2023-05-10T01:42:58.178Z,8.19
2023-05-10T01:46:11.565Z,8.23
2023-05-10T01:49:00.454Z,8.26
2023-05-10T01:51:49.950Z,8.30
2023-05-10T01:54:36.847Z,8.32
2023-05-10T01:57:28.540Z,8.31
2023-05-10T02:00:16.029Z,8.30
2023-05-10T02:03:06.743Z,8.30
2023-05-10T02:05:54.791Z,8.27
2023-05-10T02:08:42.154Z,8.28
2023-05-10T02:11:29.331Z,8.29
2023-05-10T02:14:16.726Z,8.30
2023-05-10T02:17:05.371Z,8.34
2023-05-10T02:19:53.082Z,8.37
2023-05-10T02:22:40.222Z,8.41
2023-05-10T02:25:26.650Z,8.43
2023-05-10T02:28:14.175Z,8.44
2023-05-10T02:31:00.047Z,8.41
2023-05-10T02:33:47.912Z,8.41
2023-05-10T02:36:34.477Z,8.38
2023-05-10T02:39:21.461Z,8.38
2023-05-10T02:42:07.474Z,8.39
2023-05-10T02:44:57.658Z,8.43
2023-05-10T02:47:44.772Z,8.47
2023-05-10T02:50:33.479Z,8.48
2023-05-10T02:53:26.055Z,8.49
2023-05-10T02:56:33.125Z,8.53
2023-05-10T02:59:18.924Z,8.53
2023-05-10T03:02:04.911Z,8.52
2023-05-10T03:04:50.662Z,8.51
2023-05-10T03:07:36.903Z,8.50
2023-05-10T03:10:27.894Z,8.50
2023-05-10T03:13:30.062Z,8.55
2023-05-10T03:16:29.048Z,8.58
2023-05-10T03:19:46.746Z,8.61
2023-05-10T03:22:36.274Z,8.64
2023-05-10T03:25:23.954Z,8.66
2023-05-10T03:28:13.186Z,8.67
2023-05-10T03:31:00.729Z,8.70
2023-05-10T03:33:49.862Z,8.67
2023-05-10T03:36:40.405Z,8.63
2023-05-10T03:39:26.028Z,8.64
2023-05-10T03:42:15.577Z,8.64
2023-05-10T03:45:00.958Z,8.66
2023-05-10T03:47:46.351Z,8.66
2023-05-10T03:50:32.403Z,8.65
2023-05-10T03:53:17.716Z,8.67
2023-05-10T03:56:03.266Z,8.67
2023-05-10T03:58:48.607Z,8.67
2023-05-10T04:01:37.131Z,8.70
2023-05-10T04:04:23.042Z,8.73
2023-05-10T04:07:10.705Z,8.74
2023-05-10T04:09:56.402Z,8.75
2023-05-10T04:12:42.665Z,8.76
2023-05-10T04:15:28.161Z,8.78
2023-05-10T04:18:13.685Z,8.80
2023-05-10T04:20:59.209Z,8.85
2023-05-10T04:23:44.467Z,8.90
2023-05-10T04:26:30.005Z,8.93
2023-05-10T04:29:15.254Z,8.98
2023-05-10T04:32:00.603Z,9.03
2023-05-10T04:34:45.974Z,9.07
2023-05-10T04:37:31.627Z,9.11
2023-05-10T04:40:17.656Z,9.14
2023-05-10T04:43:03.074Z,9.21
2023-05-10T04:45:48.424Z,9.27
2023-05-10T04:48:34.046Z,9.32
2023-05-10T04:51:19.724Z,9.40
2023-05-10T04:54:06.637Z,9.46
2023-05-10T04:56:52.417Z,9.52
2023-05-10T04:59:38.675Z,9.57
2023-05-10T05:02:24.827Z,9.63
2023-05-10T05:05:10.464Z,9.70
2023-05-10T05:07:55.893Z,9.76
2023-05-10T05:10:41.104Z,9.82
2023-05-10T05:13:26.777Z,9.87
2023-05-10T05:16:12.681Z,9.92
2023-05-10T05:18:58.435Z,9.98
2023-05-10T05:21:44.407Z,10.04
2023-05-10T05:24:30.134Z,10.07
2023-05-10T05:27:15.430Z,10.11
2023-05-10T05:30:00.775Z,10.16
2023-05-10T05:32:48.101Z,10.18
2023-05-10T05:35:34.296Z,10.21
2023-05-10T05:38:19.901Z,10.25
2023-05-10T05:41:05.259Z,10.27
2023-05-10T05:43:50.943Z,10.31
2023-05-10T05:46:36.463Z,10.33
2023-05-10T05:49:21.871Z,10.30
2023-05-10T05:52:07.423Z,10.33
2023-05-10T05:54:53.047Z,10.36
2023-05-10T05:57:38.761Z,10.39
2023-05-10T06:00:25.069Z,10.41
2023-05-10T06:03:10.551Z,10.43
2023-05-10T06:05:56.451Z,10.47
2023-05-10T06:08:41.745Z,10.49
2023-05-10T06:11:27.277Z,10.53
2023-05-10T06:14:13.115Z,10.54
2023-05-10T06:17:00.822Z,10.54
2023-05-10T06:19:46.731Z,10.54
2023-05-10T06:22:32.291Z,10.55
2023-05-10T06:25:19.271Z,10.58
2023-05-10T06:28:05.155Z,10.64
2023-05-10T06:30:50.514Z,10.69
2023-05-10T06:33:36.348Z,10.72
2023-05-10T06:36:22.984Z,10.75
2023-05-10T06:39:08.609Z,10.78
2023-05-10T06:41:53.923Z,10.78
2023-05-10T06:44:39.334Z,10.74
2023-05-10T06:47:24.855Z,10.73
2023-05-10T06:50:10.752Z,10.76
2023-05-10T06:52:56.792Z,10.81
2023-05-10T06:55:42.556Z,10.86
2023-05-10T06:58:27.832Z,10.89
2023-05-10T07:01:13.511Z,10.92
2023-05-10T07:03:59.444Z,10.97
2023-05-10T07:06:45.844Z,10.99
2023-05-10T07:09:31.502Z,11.00
2023-05-10T07:12:16.907Z,11.03
2023-05-10T07:15:02.656Z,11.10
2023-05-10T07:17:48.274Z,11.13
2023-05-10T07:20:34.387Z,11.15
2023-05-10T07:23:20.447Z,11.19
2023-05-10T07:26:06.087Z,11.21
2023-05-10T07:28:51.565Z,11.20
2023-05-10T07:31:37.147Z,11.20
2023-05-10T07:34:22.529Z,11.26
2023-05-10T07:37:08.468Z,11.31
2023-05-10T07:39:53.967Z,11.31
2023-05-10T07:42:39.418Z,11.34
2023-05-10T07:45:25.226Z,11.29
2023-05-10T07:48:11.006Z,11.33
2023-05-10T07:50:56.445Z,11.32
2023-05-10T07:53:41.770Z,11.32
2023-05-10T07:56:32.857Z,11.34
2023-05-10T07:59:18.750Z,11.36
2023-05-10T08:02:04.234Z,11.42
2023-05-10T08:04:49.981Z,11.44
2023-05-10T08:07:35.512Z,11.42
2023-05-10T08:10:20.992Z,11.42
2023-05-10T08:13:07.151Z,11.42
2023-05-10T08:15:54.090Z,11.44
2023-05-10T08:18:40.284Z,11.43
2023-05-10T08:21:27.043Z,11.43
2023-05-10T08:24:12.805Z,11.41
2023-05-10T08:26:58.370Z,11.34
2023-05-10T08:29:50.203Z,11.31
2023-05-10T08:32:36.233Z,11.32
2023-05-10T08:35:21.855Z,11.26
2023-05-10T08:38:08.026Z,11.21
2023-05-10T08:40:57.654Z,11.18
2023-05-10T08:43:47.303Z,11.14
2023-05-10T08:46:35.963Z,11.06
2023-05-10T08:49:22.665Z,11.02
2023-05-10T08:52:09.306Z,10.98
2023-05-10T08:54:54.740Z,10.95
2023-05-10T08:57:40.508Z,10.89
2023-05-10T09:00:27.961Z,10.86
2023-05-10T09:03:14.034Z,10.86
2023-05-10T09:05:59.781Z,10.86
2023-05-10T09:08:46.900Z,10.86
2023-05-10T09:11:33.105Z,10.82
2023-05-10T09:14:19.601Z,10.82
2023-05-10T09:17:05.687Z,10.81
2023-05-10T09:19:51.443Z,10.80
2023-05-10T09:22:37.262Z,10.82
2023-05-10T09:25:23.717Z,10.82
2023-05-10T09:28:10.603Z,10.83
2023-05-10T09:30:56.838Z,10.85
2023-05-10T09:33:50.150Z,10.90
2023-05-10T09:36:35.707Z,10.93
2023-05-10T09:39:21.649Z,10.97
2023-05-10T09:42:10.089Z,10.99
2023-05-10T09:45:01.501Z,11.02
2023-05-10T09:47:47.194Z,10.99
2023-05-10T09:50:32.781Z,10.92
2023-05-10T09:53:18.813Z,10.89
2023-05-10T09:56:04.536Z,10.89
2023-05-10T09:59:03.685Z,10.89
2023-05-10T10:01:53.807Z,10.92
2023-05-10T10:04:42.831Z,10.96
2023-05-10T10:07:28.901Z,11.00
2023-05-10T10:10:14.770Z,11.05
2023-05-10T10:13:00.835Z,11.05
2023-05-10T10:15:47.907Z,11.08
2023-05-10T10:18:34.497Z,11.14
2023-05-10T10:21:21.346Z,11.16
2023-05-10T10:24:07.511Z,11.17
2023-05-10T10:26:57.045Z,11.20
2023-05-10T10:30:10.796Z,11.20
2023-05-10T10:33:24.372Z,11.21
2023-05-10T10:36:14.491Z,11.23
2023-05-10T10:39:02.343Z,11.23
2023-05-10T10:41:52.259Z,11.31
2023-05-10T10:44:39.335Z,11.36
2023-05-10T10:47:34.201Z,11.35
2023-05-10T10:50:19.949Z,11.43
2023-05-10T10:53:13.202Z,11.50
2023-05-10T10:56:14.554Z,11.57
2023-05-10T10:59:00.826Z,11.62
2023-05-10T11:01:52.552Z,11.64
2023-05-10T11:04:47.550Z,11.71
2023-05-10T11:07:33.124Z,11.76
2023-05-10T11:10:21.981Z,11.82
2023-05-10T11:13:09.596Z,11.88
2023-05-10T11:15:55.673Z,11.94
2023-05-10T11:18:41.774Z,11.97
2023-05-10T11:21:27.415Z,12.04
2023-05-10T11:24:21.031Z,12.09
2023-05-10T11:27:07.041Z,12.13
2023-05-10T11:29:53.096Z,12.20
2023-05-10T11:32:39.656Z,12.28
2023-05-10T11:35:25.378Z,12.38
2023-05-10T11:38:12.271Z,12.38
2023-05-10T11:40:57.535Z,12.40
2023-05-10T11:43:43.762Z,12.44
2023-05-10T11:46:29.691Z,12.50
2023-05-10T11:49:15.348Z,12.52
2023-05-10T11:52:09.737Z,12.51
2023-05-10T11:54:56.198Z,12.50
2023-05-10T11:57:42.874Z,12.49
2023-05-10T12:00:28.948Z,12.50
2023-05-10T12:03:14.717Z,12.50
2023-05-10T12:06:02.097Z,12.51
2023-05-10T12:08:50.933Z,12.54
2023-05-10T12:11:44.033Z,12.55
2023-05-10T12:14:34.256Z,12.57
2023-05-10T12:17:20.305Z,12.58
2023-05-10T12:20:20.007Z,12.56
2023-05-10T12:23:06.533Z,12.60
2023-05-10T12:25:55.008Z,12.63
2023-05-10T12:28:40.789Z,12.65
2023-05-10T12:31:26.465Z,12.66
2023-05-10T12:34:11.962Z,12.73
2023-05-10T12:36:57.999Z,12.81
2023-05-10T12:39:45.849Z,12.89
2023-05-10T12:42:32.582Z,12.97
2023-05-10T12:45:19.336Z,13.02
2023-05-10T12:48:05.127Z,13.05
2023-05-10T12:50:51.007Z,13.09
2023-05-10T12:53:37.755Z,13.15
2023-05-10T12:56:23.474Z,13.24
2023-05-10T12:59:08.805Z,13.30
2023-05-10T13:01:54.351Z,13.37
2023-05-10T13:04:40.831Z,13.41
2023-05-10T13:07:26.685Z,13.46
2023-05-10T13:10:12.441Z,13.52
2023-05-10T13:12:59.098Z,13.52
2023-05-10T13:15:44.449Z,13.42
2023-05-10T13:18:30.258Z,13.39
2023-05-10T13:21:15.963Z,13.43
2023-05-10T13:24:02.421Z,13.50
2023-05-10T13:26:48.078Z,13.55
2023-05-10T13:29:33.531Z,13.58
2023-05-10T13:32:19.063Z,13.62
2023-05-10T13:35:05.943Z,13.57
2023-05-10T13:37:51.702Z,13.64
2023-05-10T13:40:37.288Z,13.69
2023-05-10T13:43:22.675Z,13.74
2023-05-10T13:46:08.373Z,13.75
2023-05-10T13:48:54.040Z,13.76
2023-05-10T13:51:39.645Z,13.75
2023-05-10T13:54:25.487Z,13.77
2023-05-10T13:57:12.929Z,13.81
2023-05-10T13:59:58.580Z,13.79
2023-05-10T14:02:44.704Z,13.79
2023-05-10T14:05:30.617Z,13.77
2023-05-10T14:08:16.252Z,13.77
2023-05-10T14:11:01.422Z,13.78
2023-05-10T14:13:47.116Z,13.74
2023-05-10T14:16:32.759Z,13.74
2023-05-10T14:19:18.510Z,13.70
2023-05-10T14:22:04.090Z,13.70
2023-05-10T14:24:49.824Z,13.71
2023-05-10T14:27:35.572Z,13.68
2023-05-10T14:30:21.686Z,13.68
2023-05-10T14:33:06.862Z,13.67
2023-05-10T14:35:52.519Z,13.67
2023-05-10T14:38:38.117Z,13.69
2023-05-10T14:41:25.770Z,13.64
2023-05-10T14:44:11.577Z,13.62
2023-05-10T14:46:57.550Z,13.63
2023-05-10T14:49:43.144Z,13.64
2023-05-10T14:52:28.745Z,13.66
2023-05-10T14:55:14.036Z,13.68
2023-05-10T14:57:59.606Z,13.69
2023-05-10T15:00:45.600Z,13.68
2023-05-10T15:03:31.887Z,13.67
2023-05-10T15:06:18.157Z,13.66
2023-05-10T15:09:07.230Z,13.60
2023-05-10T15:11:52.860Z,13.56
2023-05-10T15:14:38.537Z,13.56
2023-05-10T15:17:24.338Z,13.54
2023-05-10T15:20:10.191Z,13.53
2023-05-10T15:22:56.218Z,13.52
2023-05-10T15:25:41.926Z,13.53
2023-05-10T15:28:27.685Z,13.54
2023-05-10T15:31:13.392Z,13.55
2023-05-10T15:34:01.930Z,13.54
2023-05-10T15:36:47.843Z,13.55
2023-05-10T15:39:33.403Z,13.57
2023-05-10T15:42:18.926Z,13.57
2023-05-10T15:45:05.145Z,13.56
2023-05-10T15:47:50.631Z,13.54
2023-05-10T15:50:36.456Z,13.52
2023-05-10T15:53:22.023Z,13.51
2023-05-10T15:56:07.717Z,13.54
2023-05-10T15:58:53.381Z,13.56
2023-05-10T16:01:38.969Z,13.59
2023-05-10T16:04:24.612Z,13.60
2023-05-10T16:07:09.988Z,13.63
2023-05-10T16:09:55.523Z,13.64
2023-05-10T16:12:41.393Z,13.64
2023-05-10T16:15:27.427Z,13.61
2023-05-10T16:18:13.374Z,13.56
2023-05-10T16:20:59.389Z,13.56
2023-05-10T16:23:46.499Z,13.58
2023-05-10T16:26:32.370Z,13.62
2023-05-10T16:29:17.746Z,13.63
2023-05-10T16:32:03.570Z,13.64
2023-05-10T16:34:50.301Z,13.64
2023-05-10T16:37:36.046Z,13.60
2023-05-10T16:40:22.166Z,13.56
2023-05-10T16:43:07.969Z,13.50
2023-05-10T16:45:53.420Z,13.47
2023-05-10T16:48:39.042Z,13.46
2023-05-10T16:51:24.233Z,13.44
2023-05-10T16:54:09.865Z,13.43
2023-05-10T16:56:55.231Z,13.41
2023-05-10T16:59:40.868Z,13.41
2023-05-10T17:02:26.854Z,13.41
2023-05-10T17:05:12.274Z,13.39
2023-05-10T17:07:58.136Z,13.36
2023-05-10T17:10:44.131Z,13.34
2023-05-10T17:13:30.454Z,13.32
2023-05-10T17:16:16.087Z,13.29
2023-05-10T17:19:02.310Z,13.28
2023-05-10T17:21:48.200Z,13.27
2023-05-10T17:24:33.822Z,13.24
2023-05-10T17:27:19.271Z,13.22
2023-05-10T17:30:05.296Z,13.20
2023-05-10T17:32:51.298Z,13.19
2023-05-10T17:35:37.049Z,13.19
2023-05-10T17:38:22.863Z,13.16
2023-05-10T17:41:08.307Z,13.14
2023-05-10T17:43:54.666Z,13.14
2023-05-10T17:46:40.152Z,13.13
2023-05-10T17:49:25.698Z,13.11
2023-05-10T17:52:11.788Z,13.11
2023-05-10T17:54:57.470Z,13.08
2023-05-10T17:57:43.218Z,13.07
2023-05-10T18:00:28.765Z,13.05
2023-05-10T18:03:14.145Z,13.03
2023-05-10T18:05:59.760Z,12.99
2023-05-10T18:08:45.407Z,12.97
2023-05-10T18:11:31.186Z,12.92
2023-05-10T18:14:28.283Z,12.89
2023-05-10T18:17:21.876Z,12.84
2023-05-10T18:20:08.361Z,12.80
2023-05-10T18:22:55.190Z,12.78
2023-05-10T18:25:40.508Z,12.74
2023-05-10T18:28:26.310Z,12.71
2023-05-10T18:31:12.665Z,12.69
2023-05-10T18:33:58.009Z,12.65
2023-05-10T18:36:43.874Z,12.62
2023-05-10T18:39:29.838Z,12.57
2023-05-10T18:42:16.144Z,12.55
2023-05-10T18:45:01.611Z,12.51
2023-05-10T18:47:47.279Z,12.49
2023-05-10T18:50:32.830Z,12.46
2023-05-10T18:53:18.425Z,12.44
2023-05-10T18:56:04.347Z,12.41
2023-05-10T18:58:50.041Z,12.38
2023-05-10T19:01:35.474Z,12.36
2023-05-10T19:04:21.170Z,12.35
2023-05-10T19:07:07.016Z,12.32
2023-05-10T19:09:52.577Z,12.30
2023-05-10T19:12:38.180Z,12.29
2023-05-10T19:15:23.739Z,12.25
2023-05-10T19:18:10.041Z,12.24
2023-05-10T19:20:56.648Z,12.22
2023-05-10T19:23:43.163Z,12.21
2023-05-10T19:26:28.893Z,12.19
2023-05-10T19:29:14.695Z,12.18
2023-05-10T19:32:00.816Z,12.17
2023-05-10T19:34:46.784Z,12.15
2023-05-10T19:37:32.326Z,12.14
2023-05-10T19:40:18.652Z,12.11
2023-05-10T19:43:04.515Z,12.09
2023-05-10T19:45:49.753Z,12.09
2023-05-10T19:48:35.140Z,12.07
2023-05-10T19:51:20.731Z,12.07
2023-05-10T19:54:06.583Z,12.02
2023-05-10T19:56:52.114Z,12.01
2023-05-10T19:59:37.808Z,12.00
2023-05-10T20:02:23.536Z,11.97
2023-05-10T20:05:09.216Z,11.96
2023-05-10T20:07:54.980Z,11.92
2023-05-10T20:10:40.626Z,11.90
2023-05-10T20:13:26.367Z,11.87
2023-05-10T20:16:12.272Z,11.84
2023-05-10T20:18:57.958Z,11.81
2023-05-10T20:21:44.006Z,11.81
2023-05-10T20:24:29.599Z,11.80
2023-05-10T20:27:15.005Z,11.80
2023-05-10T20:30:00.505Z,11.77
2023-05-10T20:32:45.787Z,11.71
2023-05-10T20:35:33.051Z,11.65
2023-05-10T20:38:18.696Z,11.62
2023-05-10T20:41:03.941Z,11.61
2023-05-10T20:43:49.430Z,11.57
2023-05-10T20:46:35.131Z,11.56
2023-05-10T20:49:21.216Z,11.53
2023-05-10T20:52:07.410Z,11.52
2023-05-10T20:54:53.125Z,11.45
2023-05-10T20:57:39.055Z,11.38
2023-05-10T21:00:24.667Z,11.36
2023-05-10T21:03:10.215Z,11.34
2023-05-10T21:05:55.780Z,11.33
2023-05-10T21:08:41.036Z,11.32
2023-05-10T21:11:26.805Z,11.26
2023-05-10T21:14:12.588Z,11.21
2023-05-10T21:16:57.945Z,11.15
2023-05-10T21:19:43.448Z,11.14
2023-05-10T21:22:28.947Z,11.14
2023-05-10T21:25:14.359Z,11.15
2023-05-10T21:28:00.294Z,11.16
2023-05-10T21:30:46.420Z,11.18
2023-05-10T21:33:32.059Z,11.19
2023-05-10T21:36:17.384Z,11.21
2023-05-10T21:39:03.431Z,11.22
2023-05-10T21:41:49.141Z,11.21
2023-05-10T21:44:34.878Z,11.22
2023-05-10T21:47:20.718Z,11.22
2023-05-10T21:50:06.790Z,11.21
2023-05-10T21:52:52.204Z,11.21
2023-05-10T21:55:37.684Z,11.19
2023-05-10T21:58:23.291Z,11.17
2023-05-10T22:01:09.059Z,11.16
2023-05-10T22:03:54.424Z,11.17
2023-05-10T22:06:39.966Z,11.18
2023-05-10T22:09:25.541Z,11.18
2023-05-10T22:12:12.088Z,11.19
2023-05-10T22:15:09.443Z,11.21
2023-05-10T22:17:56.472Z,11.21
2023-05-10T22:20:45.016Z,11.22
2023-05-10T22:23:30.857Z,11.24
2023-05-10T22:26:16.605Z,11.24
2023-05-10T22:29:03.099Z,11.23
2023-05-10T22:31:48.696Z,11.23
2023-05-10T22:34:35.397Z,11.22
2023-05-10T22:37:21.302Z,11.22
2023-05-10T22:40:07.901Z,11.23
2023-05-10T22:42:53.585Z,11.26
2023-05-10T22:45:39.422Z,11.27
2023-05-10T22:48:25.082Z,11.27
2023-05-10T22:51:10.615Z,11.28
2023-05-10T22:53:56.197Z,11.29
2023-05-10T22:56:41.502Z,11.30
2023-05-10T22:59:28.620Z,11.31
2023-05-10T23:02:15.414Z,11.31
2023-05-10T23:05:01.026Z,11.30
2023-05-10T23:07:52.834Z,11.31
2023-05-10T23:10:39.233Z,11.31
2023-05-10T23:13:24.862Z,11.32
2023-05-10T23:16:10.600Z,11.33
2023-05-10T23:18:56.627Z,11.32
2023-05-10T23:21:42.311Z,11.32
2023-05-10T23:24:28.051Z,11.31
2023-05-10T23:27:14.678Z,11.33
2023-05-10T23:29:59.980Z,11.34
2023-05-10T23:32:45.662Z,11.35
2023-05-10T23:35:31.460Z,11.35
2023-05-10T23:38:17.478Z,11.37
2023-05-10T23:41:03.367Z,11.38
2023-05-10T23:43:49.244Z,11.38
2023-05-10T23:46:35.148Z,11.39
2023-05-10T23:49:20.556Z,11.41
2023-05-10T23:52:05.922Z,11.40
2023-05-10T23:54:51.830Z,11.42
2023-05-10T23:57:37.258Z,11.42
